Time;durP1;ratioP1;P1;durP2;ratioP2;P2;SDS_P1;SDS_P2;PMS_P1;PMS_P2;Temp;Humidity;BMP_temperature;BMP_pressure;BME280_temperature;BME280_humidity;BME280_pressure;Samples;Min_cycle;Max_cycle;Signal;HPM_P1;HPM_P2
2021/06/09 00:00:12;;;;;;;21.70;18.83;;;15.50;99.90;;;;;;476702;246;29297;-66
2021/06/09 00:02:13;;;;;;;16.47;14.77;;;15.50;99.90;;;;;;478478;248;28903;-65
2021/06/09 00:04:14;;;;;;;15.37;13.90;;;15.60;99.90;;;;;;476677;249;28873;-66
2021/06/09 00:06:16;;;;;;;13.83;12.43;;;15.50;99.90;;;;;;478463;248;28957;-66
2021/06/09 00:08:17;;;;;;;14.33;12.80;;;15.60;99.90;;;;;;477151;249;28836;-66
2021/06/09 00:10:18;;;;;;;14.23;12.83;;;15.60;99.90;;;;;;478502;248;28885;-66
2021/06/09 00:12:19;;;;;;;13.10;11.47;;;15.60;99.90;;;;;;476680;249;29358;-66
2021/06/09 00:14:21;;;;;;;12.23;11.00;;;15.60;99.90;;;;;;478494;248;29466;-68
2021/06/09 00:16:23;;;;;;;12.87;11.50;;;15.50;99.90;;;;;;484400;245;28889;-65
2021/06/09 00:18:23;;;;;;;12.20;11.07;;;15.50;99.90;;;;;;484370;245;28890;-67
2021/06/09 00:20:24;;;;;;;11.57;10.40;;;15.50;99.90;;;;;;476687;249;28767;-66
2021/06/09 00:22:27;;;;;;;12.20;10.90;;;15.50;99.90;;;;;;478490;248;29033;-66
2021/06/09 00:24:27;;;;;;;14.20;12.80;;;15.50;99.90;;;;;;485415;245;28645;-68
2021/06/09 00:26:28;;;;;;;11.90;10.80;;;15.50;99.90;;;;;;478492;248;29405;-65
2021/06/09 00:28:29;;;;;;;11.83;10.50;;;15.50;99.90;;;;;;476676;249;29300;-66
2021/06/09 00:30:31;;;;;;;12.07;10.97;;;15.50;99.90;;;;;;478498;248;28876;-66
2021/06/09 00:32:32;;;;;;;14.37;13.00;;;15.40;99.90;;;;;;477148;249;28884;-66
2021/06/09 00:34:33;;;;;;;13.60;12.30;;;15.40;99.90;;;;;;478501;248;28907;-67
2021/06/09 00:36:35;;;;;;;14.00;11.13;;;15.40;99.90;;;;;;476984;249;28793;-66
2021/06/09 00:38:36;;;;;;;12.90;11.60;;;15.30;99.90;;;;;;478485;248;28910;-66
2021/06/09 00:40:37;;;;;;;19.57;12.70;;;15.30;99.90;;;;;;476666;249;30335;-65
2021/06/09 00:42:38;;;;;;;14.57;13.17;;;15.30;99.90;;;;;;478483;244;29437;-66
2021/06/09 00:44:40;;;;;;;14.97;13.37;;;15.20;99.90;;;;;;476727;249;28804;-67
2021/06/09 00:46:42;;;;;;;13.40;12.13;;;15.20;99.90;;;;;;478510;248;28874;-65
2021/06/09 00:48:42;;;;;;;14.07;12.70;;;15.20;99.90;;;;;;485385;245;28614;-66
2021/06/09 00:50:43;;;;;;;13.43;12.17;;;15.10;99.90;;;;;;485437;244;28746;-66
2021/06/09 00:52:45;;;;;;;12.33;11.23;;;15.20;99.90;;;;;;477146;248;28994;-66
2021/06/09 00:54:46;;;;;;;12.23;10.93;;;15.20;99.90;;;;;;478505;248;29400;-67
2021/06/09 00:56:47;;;;;;;16.93;15.17;;;15.20;99.90;;;;;;476739;249;29245;-65
2021/06/09 00:58:48;;;;;;;12.53;11.43;;;15.10;99.90;;;;;;478529;248;29158;-66
2021/06/09 01:00:50;;;;;;;12.47;11.37;;;15.10;99.90;;;;;;476717;249;28836;-66
2021/06/09 01:02:51;;;;;;;13.43;12.13;;;15.10;99.90;;;;;;478525;248;28881;-66
2021/06/09 01:04:52;;;;;;;11.13;10.13;;;15.10;99.90;;;;;;476708;249;28841;-67
2021/06/09 01:06:53;;;;;;;13.40;12.10;;;15.10;99.90;;;;;;478472;248;28971;-65
2021/06/09 01:08:55;;;;;;;12.20;11.00;;;15.20;99.90;;;;;;476695;249;28817;-67
2021/06/09 01:10:56;;;;;;;12.63;11.43;;;15.20;99.90;;;;;;478514;248;30113;-65
2021/06/09 01:12:57;;;;;;;12.97;11.67;;;15.20;99.90;;;;;;476748;249;29235;-65
2021/06/09 01:14:58;;;;;;;13.60;12.20;;;15.20;99.90;;;;;;478527;248;28884;-67
2021/06/09 01:17:00;;;;;;;14.40;11.70;;;15.20;99.90;;;;;;476728;249;28846;-65
2021/06/09 01:19:01;;;;;;;13.47;12.07;;;15.20;99.90;;;;;;478483;248;29038;-66
2021/06/09 01:21:02;;;;;;;12.60;11.50;;;15.30;99.90;;;;;;477070;249;29384;-68
2021/06/09 01:23:03;;;;;;;12.17;11.00;;;15.30;99.90;;;;;;478523;248;28952;-66
2021/06/09 01:25:05;;;;;;;11.53;10.53;;;15.30;99.90;;;;;;476712;249;29325;-67
2021/06/09 01:27:06;;;;;;;11.13;10.13;;;15.30;99.90;;;;;;478497;248;29352;-65
2021/06/09 01:29:07;;;;;;;12.00;10.80;;;15.30;99.90;;;;;;476685;249;28801;-66
2021/06/09 01:31:09;;;;;;;11.20;10.20;;;15.40;99.90;;;;;;478526;248;28927;-68
2021/06/09 01:33:10;;;;;;;10.73;9.80;;;15.30;99.90;;;;;;477131;249;28892;-66
2021/06/09 01:35:11;;;;;;;11.80;10.80;;;15.30;99.90;;;;;;478491;248;28945;-67
2021/06/09 01:37:12;;;;;;;11.70;10.60;;;15.40;99.90;;;;;;477132;249;29031;-66
2021/06/09 01:39:14;;;;;;;10.97;9.97;;;15.40;99.90;;;;;;478530;248;29385;-65
2021/06/09 01:41:15;;;;;;;10.80;9.90;;;15.40;99.90;;;;;;485448;245;29193;-68
2021/06/09 01:43:16;;;;;;;12.83;11.50;;;15.40;99.90;;;;;;485450;243;28829;-65
2021/06/09 01:45:17;;;;;;;11.37;10.37;;;15.30;99.90;;;;;;476735;249;28876;-66
2021/06/09 01:47:19;;;;;;;13.10;11.80;;;15.30;99.90;;;;;;478501;248;28872;-66
2021/06/09 01:49:20;;;;;;;11.70;10.60;;;15.40;99.90;;;;;;484392;245;28889;-65
2021/06/09 01:51:21;;;;;;;12.33;11.23;;;15.40;99.90;;;;;;484406;245;28998;-67
2021/06/09 01:53:22;;;;;;;13.77;11.57;;;15.40;99.90;;;;;;477155;249;29486;-66
2021/06/09 01:55:24;;;;;;;11.43;10.13;;;15.40;99.90;;;;;;478527;248;29375;-67
2021/06/09 01:57:25;;;;;;;11.00;10.00;;;15.30;99.90;;;;;;477129;245;28979;-65
2021/06/09 01:59:26;;;;;;;12.67;11.47;;;15.30;99.90;;;;;;478513;248;28965;-66
2021/06/09 02:01:27;;;;;;;11.77;10.67;;;15.30;99.90;;;;;;476705;249;28873;-67
2021/06/09 02:03:29;;;;;;;11.53;10.50;;;15.30;99.90;;;;;;478513;248;28894;-66
2021/06/09 02:05:30;;;;;;;10.70;9.70;;;15.30;99.90;;;;;;477171;249;28944;-66
2021/06/09 02:07:31;;;;;;;11.33;10.33;;;15.30;99.90;;;;;;478541;248;28879;-65
2021/06/09 02:09:32;;;;;;;10.97;10.00;;;15.30;99.90;;;;;;477134;249;29498;-66
2021/06/09 02:11:34;;;;;;;12.83;11.60;;;15.20;99.90;;;;;;478512;248;29546;-66
2021/06/09 02:13:35;;;;;;;13.80;11.17;;;15.20;99.90;;;;;;477133;249;28856;-65
2021/06/09 02:15:36;;;;;;;12.70;10.87;;;15.20;99.90;;;;;;478526;248;28897;-66
2021/06/09 02:17:37;;;;;;;14.37;11.80;;;15.20;99.90;;;;;;477144;249;28928;-65
2021/06/09 02:19:39;;;;;;;14.07;12.70;;;15.10;99.90;;;;;;478503;248;28893;-66
2021/06/09 02:21:40;;;;;;;11.60;10.40;;;15.20;99.90;;;;;;484407;245;28965;-67
2021/06/09 02:23:46;;;;;;;12.40;11.20;;;15.20;99.90;;;;;;484391;245;29306;-65
2021/06/09 02:25:42;;;;;;;18.60;13.20;;;15.20;99.90;;;;;;485044;245;29083;-66
2021/06/09 02:27:44;;;;;;;12.40;11.30;;;15.20;99.90;;;;;;485479;244;28795;-68
2021/06/09 02:29:45;;;;;;;12.63;11.33;;;15.10;99.90;;;;;;477127;248;28779;-66
2021/06/09 02:31:46;;;;;;;12.80;11.50;;;15.10;99.90;;;;;;478519;244;28898;-66
2021/06/09 02:33:47;;;;;;;11.80;10.67;;;15.10;99.90;;;;;;476664;249;28761;-66
2021/06/09 02:35:49;;;;;;;12.60;11.30;;;15.10;99.90;;;;;;478529;248;28881;-65
2021/06/09 02:37:50;;;;;;;14.13;10.80;;;15.10;99.90;;;;;;484437;245;29317;-66
2021/06/09 02:39:51;;;;;;;13.27;11.90;;;15.10;99.90;;;;;;484418;245;29356;-66
2021/06/09 02:41:52;;;;;;;13.60;12.23;;;15.10;99.90;;;;;;477159;249;28821;-65
2021/06/09 02:43:54;;;;;;;13.20;11.83;;;15.10;99.90;;;;;;478529;248;29017;-66
2021/06/09 02:45:55;;;;;;;12.07;10.73;;;15.20;99.90;;;;;;477163;249;28840;-65
2021/06/09 02:47:56;;;;;;;13.70;12.20;;;15.20;99.90;;;;;;478503;248;28921;-66
2021/06/09 02:49:58;;;;;;;11.70;10.60;;;15.20;99.90;;;;;;477140;249;28859;-66
2021/06/09 02:51:59;;;;;;;13.07;11.70;;;15.30;99.90;;;;;;478503;248;29397;-65
2021/06/09 02:54:00;;;;;;;13.90;11.53;;;15.30;99.90;;;;;;477152;249;29467;-66
2021/06/09 02:56:01;;;;;;;12.83;11.63;;;15.20;99.90;;;;;;478504;248;28856;-65
2021/06/09 02:58:03;;;;;;;12.30;11.10;;;15.20;99.90;;;;;;477124;249;28812;-67
2021/06/09 03:00:04;;;;;;;14.33;12.83;;;15.20;99.90;;;;;;478524;248;28902;-65
2021/06/09 03:02:05;;;;;;;12.57;11.37;;;15.20;99.90;;;;;;476587;249;28893;-66
2021/06/09 03:04:06;;;;;;;12.57;11.30;;;15.30;99.90;;;;;;478334;248;28915;-68
2021/06/09 03:06:08;;;;;;;11.57;10.53;;;15.30;99.90;;;;;;477148;249;29228;-66
2021/06/09 03:08:09;;;;;;;13.37;12.07;;;15.20;99.90;;;;;;478397;248;29743;-65
2021/06/09 03:10:10;;;;;;;12.87;11.57;;;15.20;99.90;;;;;;476598;249;28815;-65
2021/06/09 03:12:14;;;;;;;12.70;11.40;;;15.20;99.90;;;;;;478507;248;28969;-66
2021/06/09 03:16:17;;;;;;;12.30;11.10;;;15.30;99.90;;;;;;484370;245;28889;-65
2021/06/09 03:18:19;;;;;;;12.80;11.33;;;15.30;99.90;;;;;;477115;245;28831;-66
2021/06/09 03:20:20;;;;;;;11.50;10.50;;;15.30;99.90;;;;;;478507;248;28897;-66
2021/06/09 03:22:21;;;;;;;12.57;11.37;;;15.30;99.90;;;;;;477137;249;29304;-69
2021/06/09 03:24:22;;;;;;;14.83;13.40;;;15.30;99.90;;;;;;478493;248;29767;-65
2021/06/09 03:26:23;;;;;;;12.70;11.30;;;15.20;99.90;;;;;;477137;249;28814;-67
2021/06/09 03:28:24;;;;;;;13.50;11.87;;;15.30;99.90;;;;;;478524;248;28881;-66
2021/06/09 03:30:26;;;;;;;13.37;12.07;;;15.30;99.90;;;;;;476689;249;28804;-65
2021/06/09 03:32:27;;;;;;;12.70;11.20;;;15.30;99.90;;;;;;478465;248;28927;-67
2021/06/09 03:34:28;;;;;;;15.40;13.90;;;15.30;99.90;;;;;;477116;249;28840;-65
2021/06/09 03:36:29;;;;;;;23.20;16.90;;;15.20;99.90;;;;;;478509;248;29486;-66
2021/06/09 03:38:31;;;;;;;14.40;12.90;;;15.20;99.90;;;;;;476712;249;29249;-65
2021/06/09 03:40:32;;;;;;;14.40;12.90;;;15.10;99.90;;;;;;478449;248;28982;-65
2021/06/09 03:42:33;;;;;;;12.87;11.57;;;15.20;99.90;;;;;;477120;249;28911;-66
2021/06/09 03:44:34;;;;;;;13.43;12.13;;;15.20;99.90;;;;;;478512;248;28859;-66
2021/06/09 03:46:36;;;;;;;14.73;13.23;;;15.20;99.90;;;;;;477109;249;28626;-65
2021/06/09 03:48:37;;;;;;;12.87;11.67;;;15.10;99.90;;;;;;478430;248;28931;-68
2021/06/09 03:50:38;;;;;;;12.30;11.10;;;15.20;99.90;;;;;;477117;249;29320;-66
2021/06/09 03:52:39;;;;;;;12.33;11.20;;;15.20;99.90;;;;;;478513;248;29466;-67
2021/06/09 03:54:41;;;;;;;14.10;10.93;;;15.10;99.90;;;;;;477117;249;28816;-65
2021/06/09 03:56:42;;;;;;;13.50;12.10;;;15.10;99.90;;;;;;478494;248;29044;-66
2021/06/09 03:58:43;;;;;;;12.03;10.83;;;15.20;99.90;;;;;;477119;249;28947;-68
2021/06/09 04:00:45;;;;;;;14.17;12.73;;;15.10;99.90;;;;;;478472;248;29381;-66
2021/06/09 04:02:46;;;;;;;13.00;11.70;;;15.20;99.90;;;;;;476611;249;28865;-65
2021/06/09 04:04:47;;;;;;;14.60;11.97;;;15.20;99.90;;;;;;478367;248;29338;-66
2021/06/09 04:06:48;;;;;;;12.83;11.63;;;15.20;99.90;;;;;;477017;249;29303;-66
2021/06/09 04:08:50;;;;;;;14.80;11.80;;;15.10;99.90;;;;;;478424;248;28970;-68
2021/06/09 04:10:51;;;;;;;15.40;12.50;;;15.10;99.90;;;;;;477075;249;28892;-65
2021/06/09 04:12:52;;;;;;;13.53;12.13;;;15.10;99.90;;;;;;478421;248;29026;-67
2021/06/09 04:14:53;;;;;;;13.83;12.63;;;15.10;99.90;;;;;;477048;249;29025;-66
2021/06/09 04:16:55;;;;;;;13.30;11.93;;;15.20;99.90;;;;;;478459;248;28925;-65
2021/06/09 04:18:56;;;;;;;13.33;12.03;;;15.20;99.90;;;;;;477096;249;29310;-67
2021/06/09 04:20:57;;;;;;;13.80;12.40;;;15.20;99.90;;;;;;478486;248;29371;-65
2021/06/09 04:22:58;;;;;;;11.87;10.77;;;15.20;99.90;;;;;;477150;245;28813;-66
2021/06/09 04:25:00;;;;;;;12.53;11.20;;;15.30;99.90;;;;;;478482;248;28898;-66
2021/06/09 04:27:01;;;;;;;12.20;11.00;;;15.30;99.90;;;;;;476697;249;28829;-66
2021/06/09 04:29:02;;;;;;;13.70;12.37;;;15.40;99.90;;;;;;478494;248;28924;-67
2021/06/09 04:31:03;;;;;;;13.47;11.80;;;15.40;99.90;;;;;;477103;249;28866;-65
2021/06/09 04:33:10;;;;;;;12.20;11.07;;;15.50;99.90;;;;;;478490;248;29370;-67
2021/06/09 04:35:09;;;;;;;12.80;11.67;;;15.50;99.90;;;;;;485247;245;28601;-66
2021/06/09 04:37:10;;;;;;;12.67;11.47;;;15.60;99.90;;;;;;478479;248;29387;-67
2021/06/09 04:39:11;;;;;;;12.80;11.60;;;15.60;99.90;;;;;;484397;245;29271;-66
2021/06/09 04:41:13;;;;;;;12.63;11.33;;;15.60;99.90;;;;;;484395;245;29336;-67
2021/06/09 04:43:14;;;;;;;13.80;12.10;;;15.60;99.90;;;;;;476688;249;28864;-66
2021/06/09 04:45:15;;;;;;;11.53;10.43;;;15.70;99.90;;;;;;478483;248;28902;-66
2021/06/09 04:47:16;;;;;;;12.23;11.13;;;15.70;99.90;;;;;;477131;249;28832;-67
2021/06/09 04:49:18;;;;;;;12.90;11.73;;;15.80;99.90;;;;;;478515;248;28985;-66
2021/06/09 04:51:19;;;;;;;12.60;11.30;;;15.80;99.90;;;;;;476712;249;28828;-66
2021/06/09 04:53:20;;;;;;;12.27;11.10;;;15.80;99.90;;;;;;478498;248;29404;-65
2021/06/09 04:55:21;;;;;;;12.00;10.90;;;15.90;99.90;;;;;;477150;249;29300;-66
2021/06/09 04:57:23;;;;;;;11.67;10.57;;;15.90;99.90;;;;;;478452;248;28904;-67
2021/06/09 04:59:24;;;;;;;13.70;12.27;;;15.90;99.90;;;;;;476711;249;28876;-66
2021/06/09 05:01:25;;;;;;;13.30;12.00;;;16.00;99.90;;;;;;478510;248;28914;-66
2021/06/09 05:03:26;;;;;;;22.70;14.63;;;16.10;99.90;;;;;;477151;249;28815;-66
2021/06/09 05:05:28;;;;;;;12.13;11.03;;;16.20;99.90;;;;;;478455;248;29000;-67
2021/06/09 05:07:29;;;;;;;13.37;12.07;;;16.30;99.90;;;;;;477005;249;29440;-67
2021/06/09 05:09:30;;;;;;;15.13;11.50;;;16.30;99.90;;;;;;478475;248;29330;-65
2021/06/09 05:11:31;;;;;;;14.77;13.37;;;16.40;99.90;;;;;;477141;249;28900;-66
2021/06/09 05:13:33;;;;;;;16.53;14.80;;;16.50;99.90;;;;;;478492;248;28909;-66
2021/06/09 05:15:34;;;;;;;14.10;12.83;;;16.60;99.90;;;;;;477143;249;28793;-66
2021/06/09 05:17:35;;;;;;;13.70;12.50;;;16.60;99.90;;;;;;478467;248;28914;-67
2021/06/09 05:19:37;;;;;;;15.17;13.10;;;16.70;99.90;;;;;;477115;249;28782;-65
2021/06/09 05:21:38;;;;;;;14.13;12.50;;;16.70;99.90;;;;;;478480;248;29391;-66
2021/06/09 05:23:39;;;;;;;12.10;11.00;;;16.80;99.90;;;;;;477116;249;29397;-67
2021/06/09 05:25:40;;;;;;;13.47;11.63;;;16.90;99.90;;;;;;478484;248;28881;-66
2021/06/09 05:27:42;;;;;;;12.70;11.50;;;16.90;99.90;;;;;;477136;249;28903;-66
2021/06/09 05:29:43;;;;;;;14.03;12.77;;;17.00;99.90;;;;;;478458;248;28928;-66
2021/06/09 05:31:46;;;;;;;12.43;11.27;;;17.10;99.90;;;;;;477067;249;28815;-66
2021/06/09 05:33:45;;;;;;;13.70;12.40;;;17.00;99.90;;;;;;478450;248;28946;-68
2021/06/09 05:35:47;;;;;;;13.57;12.27;;;17.10;99.90;;;;;;484402;245;29831;-66
2021/06/09 05:37:48;;;;;;;12.70;11.50;;;17.10;99.90;;;;;;484399;245;29359;-67
2021/06/09 05:39:49;;;;;;;13.00;11.70;;;17.10;99.90;;;;;;470381;249;28954;-66
2021/06/09 05:41:50;;;;;;;12.63;11.43;;;17.00;99.90;;;;;;477077;249;28867;-66
2021/06/09 05:43:52;;;;;;;14.67;12.30;;;17.10;99.90;;;;;;470339;253;28840;-69
2021/06/09 05:45:53;;;;;;;12.83;11.63;;;17.10;99.90;;;;;;476927;249;28840;-66
2021/06/09 05:47:57;;;;;;;12.30;11.23;;;17.10;99.90;;;;;;469414;253;29306;-66
2021/06/09 05:49:59;;;;;;;13.70;12.50;;;17.20;99.90;;;;;;475718;249;29014;-66
2021/06/09 05:52:00;;;;;;;11.23;10.23;;;17.20;99.90;;;;;;469229;253;28838;-66
2021/06/09 05:54:01;;;;;;;13.27;11.97;;;17.20;99.90;;;;;;475868;250;29373;-66
2021/06/09 05:56:02;;;;;;;12.17;11.07;;;17.20;99.90;;;;;;476050;248;29467;-66
2021/06/09 05:58:04;;;;;;;14.63;12.00;;;17.20;99.90;;;;;;477115;249;28844;-69
2021/06/09 06:00:05;;;;;;;11.70;10.60;;;17.20;99.90;;;;;;470341;253;28894;-67
2021/06/09 06:02:06;;;;;;;12.63;11.33;;;17.20;99.90;;;;;;476091;250;29016;-66
2021/06/09 06:04:07;;;;;;;12.07;10.97;;;17.20;99.90;;;;;;476097;250;28952;-65
2021/06/09 06:06:09;;;;;;;12.80;11.60;;;17.20;99.90;;;;;;477101;249;28932;-66
2021/06/09 06:08:10;;;;;;;12.17;10.97;;;17.10;99.90;;;;;;470387;253;29313;-68
2021/06/09 06:10:11;;;;;;;11.37;10.27;;;17.20;99.90;;;;;;477116;249;29382;-65
2021/06/09 06:12:12;;;;;;;12.30;11.20;;;17.20;99.90;;;;;;470365;253;28863;-66
2021/06/09 06:14:14;;;;;;;12.20;11.00;;;17.20;99.90;;;;;;476744;249;29035;-66
2021/06/09 06:16:15;;;;;;;12.20;11.10;;;17.20;99.90;;;;;;470304;253;28920;-65
2021/06/09 06:18:16;;;;;;;12.60;11.47;;;17.30;99.90;;;;;;476884;249;28959;-67
2021/06/09 06:20:17;;;;;;;16.27;12.00;;;17.30;99.90;;;;;;470393;253;28828;-66
2021/06/09 06:22:19;;;;;;;11.80;10.80;;;17.40;99.90;;;;;;476136;250;29412;-66
2021/06/09 06:24:20;;;;;;;12.13;10.93;;;17.40;99.90;;;;;;476128;250;30200;-66
2021/06/09 06:26:21;;;;;;;12.33;11.13;;;17.50;99.90;;;;;;477134;249;28894;-66
2021/06/09 06:28:23;;;;;;;11.73;10.63;;;17.50;99.90;;;;;;470405;253;28853;-68
2021/06/09 06:30:24;;;;;;;13.70;12.40;;;17.50;99.90;;;;;;477158;249;28851;-68
2021/06/09 06:32:25;;;;;;;11.97;10.97;;;17.60;99.90;;;;;;470416;253;28857;-66
2021/06/09 06:34:26;;;;;;;12.70;11.50;;;17.60;99.90;;;;;;477128;249;28804;-66
2021/06/09 06:36:27;;;;;;;12.90;11.80;;;17.70;99.90;;;;;;470420;253;29339;-66
2021/06/09 06:38:29;;;;;;;12.17;11.00;;;17.70;99.90;;;;;;477142;249;29279;-67
2021/06/09 06:40:32;;;;;;;11.70;10.70;;;17.80;99.90;;;;;;470450;253;28805;-67
2021/06/09 06:42:31;;;;;;;11.50;10.30;;;17.80;99.90;;;;;;477031;249;28907;-67
2021/06/09 06:44:32;;;;;;;11.10;10.13;;;17.90;99.90;;;;;;470434;253;28833;-66
2021/06/09 06:46:34;;;;;;;12.00;10.73;;;17.90;99.90;;;;;;477127;249;28835;-66
2021/06/09 06:48:35;;;;;;;10.73;9.73;;;18.00;99.90;;;;;;470405;253;28948;-67
2021/06/09 06:50:37;;;;;;;10.40;9.40;;;18.00;99.90;;;;;;477098;249;28875;-66
2021/06/09 06:52:38;;;;;;;11.90;10.80;;;18.10;99.90;;;;;;470394;253;29432;-66
2021/06/09 06:54:39;;;;;;;11.00;9.90;;;18.20;99.90;;;;;;477133;249;31301;-66
2021/06/09 06:56:40;;;;;;;10.97;9.87;;;18.30;99.90;;;;;;470325;253;28887;-70
2021/06/09 06:58:48;;;;;;;11.50;10.40;;;18.30;99.90;;;;;;483823;244;28735;-67
2021/06/09 07:00:43;;;;;;;10.60;9.60;;;18.40;99.90;;;;;;485709;245;28763;-66
2021/06/09 07:02:44;;;;;;;12.60;11.33;;;18.50;99.90;;;;;;485996;245;28857;-67
2021/06/09 07:04:45;;;;;;;14.67;13.17;;;18.70;99.90;;;;;;485988;245;29135;-68
2021/06/09 07:06:46;;;;;;;13.33;12.03;;;18.80;99.90;;;;;;485998;245;29345;-66
2021/06/09 07:08:49;;;;;;;13.87;12.57;;;18.90;99.90;;;;;;485977;245;29354;-67
2021/06/09 07:10:49;;;;;;;12.53;11.30;;;18.90;99.90;;;;;;485875;245;28757;-66
2021/06/09 07:12:50;;;;;;;22.97;14.10;;;18.90;99.90;;;;;;485929;245;28856;-67
2021/06/09 07:14:51;;;;;;;15.47;12.33;;;19.10;99.90;;;;;;485958;242;29017;-68
2021/06/09 07:16:53;;;;;;;12.90;11.27;;;19.10;99.90;;;;;;485949;245;28747;-67
2021/06/09 07:18:54;;;;;;;12.93;11.60;;;19.10;99.90;;;;;;485666;245;28857;-67
2021/06/09 07:20:55;;;;;;;14.90;11.83;;;19.10;99.90;;;;;;485928;245;28817;-67
2021/06/09 07:22:56;;;;;;;11.93;10.83;;;19.10;99.90;;;;;;485854;245;29270;-66
2021/06/09 07:24:58;;;;;;;14.10;11.80;;;19.10;99.90;;;;;;485861;245;29319;-66
2021/06/09 07:26:59;;;;;;;13.77;12.30;;;19.00;99.90;;;;;;485954;245;28719;-66
2021/06/09 07:29:00;;;;;;;14.53;12.47;;;18.90;99.90;;;;;;485953;245;28858;-67
2021/06/09 07:31:01;;;;;;;14.77;12.73;;;19.00;99.90;;;;;;486008;245;28748;-67
2021/06/09 07:33:03;;;;;;;15.10;13.30;;;19.00;99.90;;;;;;485985;245;28776;-63
2021/06/09 07:35:04;;;;;;;13.60;12.17;;;19.10;99.90;;;;;;485074;245;29815;-67
2021/06/09 07:37:05;;;;;;;13.73;12.33;;;19.10;99.90;;;;;;484586;245;29224;-67
2021/06/09 07:39:06;;;;;;;13.37;12.00;;;19.20;99.90;;;;;;485944;245;29365;-67
2021/06/09 07:41:08;;;;;;;17.60;14.30;;;19.20;99.90;;;;;;485956;245;28757;-66
2021/06/09 07:43:09;;;;;;;16.50;14.10;;;19.30;99.90;;;;;;485944;245;28949;-65
2021/06/09 07:45:10;;;;;;;16.57;14.87;;;19.40;99.90;;;;;;485997;245;28785;-69
2021/06/09 07:47:11;;;;;;;17.17;13.70;;;19.50;99.90;;;;;;485975;245;28827;-64
2021/06/09 07:49:13;;;;;;;14.90;13.40;;;19.60;99.90;;;;;;485946;245;28790;-67
2021/06/09 07:51:14;;;;;;;18.60;13.93;;;19.80;99.90;;;;;;485957;245;29358;-64
2021/06/09 07:53:15;;;;;;;11.87;10.70;;;19.80;99.90;;;;;;485957;245;29223;-67
2021/06/09 07:55:17;;;;;;;13.07;10.40;;;20.00;99.90;;;;;;485950;245;28771;-69
2021/06/09 07:57:18;;;;;;;12.47;11.27;;;20.00;99.90;;;;;;485981;245;28842;-67
2021/06/09 07:59:19;;;;;;;11.40;10.30;;;20.10;99.90;;;;;;485947;245;28761;-67
2021/06/09 08:01:20;;;;;;;12.43;11.13;;;20.10;99.90;;;;;;485910;245;28846;-67
2021/06/09 08:03:22;;;;;;;10.23;9.40;;;20.10;99.90;;;;;;485906;245;28796;-67
2021/06/09 08:05:23;;;;;;;13.47;12.00;;;20.20;99.90;;;;;;485836;245;29390;-68
2021/06/09 08:07:24;;;;;;;12.30;11.10;;;20.30;99.90;;;;;;485940;245;29259;-66
2021/06/09 08:09:25;;;;;;;10.10;9.20;;;20.30;99.90;;;;;;485844;245;28775;-68
2021/06/09 08:11:27;;;;;;;12.20;10.47;;;20.30;99.90;;;;;;485924;245;28751;-66
2021/06/09 08:13:28;;;;;;;12.27;11.07;;;20.30;99.90;;;;;;485917;245;29251;-66
2021/06/09 08:15:29;;;;;;;10.60;9.50;;;20.20;99.90;;;;;;485924;242;29259;-69
2021/06/09 08:17:30;;;;;;;10.87;9.67;;;20.10;99.90;;;;;;485939;245;28840;-67
2021/06/09 08:19:32;;;;;;;11.37;10.20;;;20.00;99.90;;;;;;485936;245;28780;-67
2021/06/09 08:21:33;;;;;;;11.37;10.00;;;19.90;99.90;;;;;;485985;245;28777;-65
2021/06/09 08:23:34;;;;;;;12.17;10.73;;;19.80;99.90;;;;;;485908;245;28852;-66
2021/06/09 08:25:35;;;;;;;10.63;9.73;;;19.80;99.90;;;;;;485927;245;28849;-68
2021/06/09 08:27:37;;;;;;;11.70;10.10;;;19.70;99.90;;;;;;485951;245;28844;-67
2021/06/09 08:29:38;;;;;;;10.70;9.67;;;19.60;99.90;;;;;;485918;245;30117;-67
2021/06/09 08:31:39;;;;;;;11.37;10.27;;;19.60;99.90;;;;;;485813;245;29314;-67
2021/06/09 08:33:41;;;;;;;11.23;9.57;;;19.60;99.90;;;;;;485630;245;28878;-67
2021/06/09 08:35:42;;;;;;;10.33;9.40;;;19.70;99.90;;;;;;485627;245;28779;-68
2021/06/09 08:37:43;;;;;;;11.53;10.37;;;19.90;99.90;;;;;;485727;245;28745;-67
2021/06/09 08:39:44;;;;;;;11.93;9.60;;;19.90;99.90;;;;;;485985;245;28878;-67
2021/06/09 08:41:45;;;;;;;11.50;10.47;;;20.10;99.90;;;;;;485947;245;28772;-67
2021/06/09 08:43:48;;;;;;;10.23;9.23;;;20.10;99.90;;;;;;485999;245;28762;-66
2021/06/09 08:45:48;;;;;;;11.83;10.77;;;20.30;99.90;;;;;;485903;245;29366;-68
2021/06/09 08:47:49;;;;;;;11.20;10.20;;;20.60;99.90;;;;;;485987;245;29326;-67
2021/06/09 08:49:50;;;;;;;10.03;8.90;;;20.70;99.90;;;;;;485972;245;28795;-67
2021/06/09 08:51:52;;;;;;;9.93;9.03;;;20.70;99.90;;;;;;485975;245;28814;-66
2021/06/09 08:53:53;;;;;;;9.90;9.07;;;20.80;99.90;;;;;;485948;245;28770;-67
2021/06/09 08:55:54;;;;;;;9.67;8.83;;;20.80;99.90;;;;;;485951;245;28800;-68
2021/06/09 08:57:55;;;;;;;9.67;8.73;;;20.70;99.90;;;;;;485994;245;28767;-66
2021/06/09 08:59:57;;;;;;;10.10;9.20;;;20.60;99.90;;;;;;485941;245;28874;-68
2021/06/09 09:01:58;;;;;;;9.83;8.93;;;20.50;99.90;;;;;;485989;245;28756;-66
2021/06/09 09:03:59;;;;;;;10.53;9.40;;;20.50;99.90;;;;;;485974;245;29416;-66
2021/06/09 09:06:00;;;;;;;9.87;8.87;;;20.40;99.90;;;;;;485991;245;29367;-68
2021/06/09 09:08:02;;;;;;;9.90;8.90;;;20.40;99.90;;;;;;485970;242;29230;-66
2021/06/09 09:10:03;;;;;;;8.50;7.70;;;20.30;99.90;;;;;;485954;245;28786;-66
2021/06/09 09:12:04;;;;;;;8.60;7.77;;;20.40;99.90;;;;;;486001;245;28874;-66
2021/06/09 09:14:05;;;;;;;9.80;8.90;;;20.50;99.90;;;;;;485874;245;28829;-66
2021/06/09 09:16:07;;;;;;;10.70;9.70;;;20.50;99.90;;;;;;486016;245;28840;-65
2021/06/09 09:18:08;;;;;;;8.90;8.10;;;20.70;99.90;;;;;;485994;245;28745;-66
2021/06/09 09:20:10;;;;;;;10.30;9.17;;;20.60;99.90;;;;;;485954;245;28779;-67
2021/06/09 09:22:11;;;;;;;10.40;9.37;;;20.70;99.90;;;;;;485949;245;28742;-66
2021/06/09 09:24:12;;;;;;;10.03;9.10;;;20.70;99.90;;;;;;485956;245;28777;-65
2021/06/09 09:26:13;;;;;;;10.80;9.30;;;20.70;99.90;;;;;;485980;245;30029;-68
2021/06/09 09:28:14;;;;;;;8.60;7.90;;;20.80;99.90;;;;;;486019;245;29267;-66
2021/06/09 09:30:17;;;;;;;9.50;8.40;;;20.90;99.90;;;;;;486019;245;29360;-67
2021/06/09 09:32:17;;;;;;;8.30;7.60;;;20.90;99.90;;;;;;485927;245;28859;-66
2021/06/09 09:34:18;;;;;;;11.27;8.57;;;20.90;99.90;;;;;;485986;245;28869;-66
2021/06/09 09:36:19;;;;;;;8.33;7.63;;;20.90;99.90;;;;;;486021;245;28804;-68
2021/06/09 09:38:22;;;;;;;8.00;7.30;;;21.00;99.90;;;;;;486015;245;28736;-66
2021/06/09 09:40:22;;;;;;;8.90;8.13;;;21.20;99.90;;;;;;485967;245;28863;-66
2021/06/09 09:42:25;;;;;;;8.97;8.17;;;21.30;99.90;;;;;;486009;245;28822;-66
2021/06/09 09:44:24;;;;;;;8.87;8.07;;;21.30;99.90;;;;;;485828;245;28779;-66
2021/06/09 09:46:30;;;;;;;8.03;7.33;;;21.20;99.90;;;;;;486011;245;29199;-67
2021/06/09 09:48:27;;;;;;;9.60;8.60;;;21.20;99.90;;;;;;485852;245;29373;-66
2021/06/09 09:50:28;;;;;;;8.27;7.47;;;21.10;99.90;;;;;;486016;245;29278;-66
2021/06/09 09:52:29;;;;;;;8.87;7.97;;;20.90;99.90;;;;;;486008;245;29210;-66
2021/06/09 09:54:31;;;;;;;8.50;7.70;;;21.10;99.90;;;;;;485979;245;28839;-66
2021/06/09 09:56:32;;;;;;;8.93;7.17;;;21.20;99.90;;;;;;486007;245;28780;-66
2021/06/09 09:58:33;;;;;;;8.30;6.97;;;21.30;99.90;;;;;;483693;242;28825;-66
2021/06/09 10:00:34;;;;;;;9.53;8.40;;;21.30;99.90;;;;;;479849;245;28758;-67
2021/06/09 10:02:37;;;;;;;8.10;7.40;;;21.50;99.90;;;;;;479928;247;28781;-66
2021/06/09 10:04:38;;;;;;;13.10;7.87;;;21.50;99.90;;;;;;479831;247;29247;-66
2021/06/09 10:06:39;;;;;;;8.40;7.60;;;21.70;99.90;;;;;;479827;247;29270;-68
2021/06/09 10:08:39;;;;;;;7.20;6.60;;;21.70;99.90;;;;;;479874;247;29309;-66
2021/06/09 10:10:41;;;;;;;8.30;7.20;;;21.70;99.90;;;;;;479927;247;28781;-67
2021/06/09 10:12:42;;;;;;;7.70;6.90;;;21.60;99.90;;;;;;479930;247;28742;-66
2021/06/09 10:14:48;;;;;;;7.20;6.63;;;21.50;99.90;;;;;;479614;247;28924;-67
2021/06/09 10:16:45;;;;;;;6.83;6.23;;;21.50;99.90;;;;;;479680;248;28780;-67
2021/06/09 10:18:46;;;;;;;6.53;6.00;;;21.50;99.90;;;;;;479909;247;28760;-66